This is the latest recevied weather packets stored in our database for station/object OE-11361. If no packets are shown the sender has not sent any weather packets the latest 10 day(s).
| Time | Temp. | Humidity | Pressure | Rain* | Wind** | Luminosity | Snow |
|---|---|---|---|---|---|---|---|
| 1787816477 | 21.67° C | 73% | 1014.5 hPa | 0 mm | - | 386 W/m² | - |
| 1787816103 | 21.67° C | 71% | 1014.6 hPa | 0 mm | - | 393 W/m² | - |
| 1787815504 | 21.11° C | 74% | 1014.7 hPa | 0 mm | - | 400 W/m² | - |
| 1787814677 | 20° C | 78% | 1015.1 hPa | 0 mm | - | 365 W/m² | - |
| 1787814304 | 19.44° C | 81% | 1015.4 hPa | 0 mm | - | 331 W/m² | - |
| 1787813704 | 18.89° C | 83% | 1015.4 hPa | 0 mm | - | 303 W/m² | - |
| 1787812877 | 17.78° C | 89% | 1015.8 hPa | 0 mm | - | 193 W/m² | - |
| 1787812504 | 16.67° C | 92% | 1016.1 hPa | 0 mm | - | 103 W/m² | - |
| 1787811904 | 16.67° C | 92% | 1016.2 hPa | 0 mm | - | 103 W/m² | - |
| 1787811316 | 16.11° C | 93% | 1016.3 hPa | 0 mm | - | 103 W/m² | - |
| 1787810704 | 15.56° C | 95% | 1016.4 hPa | 0 mm | - | 62 W/m² | - |
| 1787810104 | 15.56° C | 95% | 1016.4 hPa | 0 mm | - | 55 W/m² | - |
| 1787809277 | 15.56° C | 95% | 1016.7 hPa | 0 mm | - | 48 W/m² | - |
| 1787808904 | 15.56° C | 95% | 1016.8 hPa | 0 mm | - | 55 W/m² | - |
| 1787808304 | 15° C | 97% | 1016.8 hPa | 0 mm | - | 55 W/m² | - |
| 1787807477 | 15° C | 97% | 1016.9 hPa | 0 mm | - | 48 W/m² | - |
| 1787807104 | 14.44° C | 96% | 1017 hPa | 0 mm | - | 41 W/m² | - |
| 1787806504 | 14.44° C | 97% | 1017 hPa | 0 mm | - | 21 W/m² | - |
| 1787805676 | 14.44° C | 97% | 1016.9 hPa | 0 mm | - | 14 W/m² | - |
| 1787805304 | 14.44° C | 97% | 1016.9 hPa | 0 mm | - | 7 W/m² | - |
| 1787804704 | 14.44° C | 96% | 1016.8 hPa | 0 mm | - | 0 W/m² | - |
| 1787803877 | 14.44° C | 97% | 1016.7 hPa | 0 mm | - | 0 W/m² | - |
| 1787803504 | 14.44° C | 97% | 1016.7 hPa | 0 mm | - | 0 W/m² | - |
| 1787802904 | 14.44° C | 96% | 1016.6 hPa | 0 mm | - | 0 W/m² | - |
| 1787802304 | 14.44° C | 96% | 1016.4 hPa | 0 mm | - | 0 W/m² | - |
* Rain latest hour (hover to see other rain measurements)
** Current wind speed in m/s (hover to see current wind gust speed)